sensor_id;sensor_type;location;lat;lon;timestamp;pressure;altitude;pressure_sealevel;temperature
52673;BMP280;38568;53.260;-2.504;2023-07-09T00:02:14;101451.94;;;23.56
52673;BMP280;38568;53.260;-2.504;2023-07-09T00:04:39;101457.96;;;23.62
52673;BMP280;38568;53.260;-2.504;2023-07-09T00:07:05;101456.58;;;23.48
52673;BMP280;38568;53.260;-2.504;2023-07-09T00:09:30;101455.55;;;23.86
52673;BMP280;38568;53.260;-2.504;2023-07-09T00:11:55;101450.65;;;23.79
52673;BMP280;38568;53.260;-2.504;2023-07-09T00:14:20;101447.90;;;23.43
52673;BMP280;38568;53.260;-2.504;2023-07-09T00:16:46;101451.28;;;24.23
52673;BMP280;38568;53.260;-2.504;2023-07-09T00:19:12;101447.87;;;23.73
52673;BMP280;38568;53.260;-2.504;2023-07-09T00:21:36;101441.01;;;23.34
52673;BMP280;38568;53.260;-2.504;2023-07-09T00:24:02;101442.86;;;23.77
52673;BMP280;38568;53.260;-2.504;2023-07-09T00:26:27;101442.97;;;23.72
52673;BMP280;38568;53.260;-2.504;2023-07-09T00:28:52;101444.51;;;23.80
52673;BMP280;38568;53.260;-2.504;2023-07-09T00:31:17;101445.50;;;23.73
52673;BMP280;38568;53.260;-2.504;2023-07-09T00:33:44;101435.60;;;23.53
52673;BMP280;38568;53.260;-2.504;2023-07-09T00:36:14;101433.39;;;23.76
52673;BMP280;38568;53.260;-2.504;2023-07-09T00:38:34;101438.55;;;23.56
52673;BMP280;38568;53.260;-2.504;2023-07-09T00:41:02;101442.39;;;23.83
52673;BMP280;38568;53.260;-2.504;2023-07-09T00:48:17;101439.94;;;23.35
52673;BMP280;38568;53.260;-2.504;2023-07-09T00:50:47;101449.06;;;23.13
52673;BMP280;38568;53.260;-2.504;2023-07-09T00:53:11;101445.08;;;23.33
52673;BMP280;38568;53.260;-2.504;2023-07-09T00:55:36;101439.13;;;23.45
52673;BMP280;38568;53.260;-2.504;2023-07-09T00:58:02;101437.10;;;23.41
52673;BMP280;38568;53.260;-2.504;2023-07-09T01:00:29;101434.51;;;23.43
52673;BMP280;38568;53.260;-2.504;2023-07-09T01:02:50;101434.35;;;23.45
52673;BMP280;38568;53.260;-2.504;2023-07-09T01:05:15;101436.03;;;23.39
52673;BMP280;38568;53.260;-2.504;2023-07-09T01:07:40;101438.70;;;23.19
52673;BMP280;38568;53.260;-2.504;2023-07-09T01:10:07;101439.48;;;23.47
52673;BMP280;38568;53.260;-2.504;2023-07-09T01:12:32;101435.75;;;23.78
52673;BMP280;38568;53.260;-2.504;2023-07-09T01:14:57;101437.49;;;23.63
52673;BMP280;38568;53.260;-2.504;2023-07-09T01:17:23;101435.08;;;23.57
52673;BMP280;38568;53.260;-2.504;2023-07-09T01:19:50;101429.06;;;23.64
52673;BMP280;38568;53.260;-2.504;2023-07-09T01:22:16;101423.77;;;23.63
52673;BMP280;38568;53.260;-2.504;2023-07-09T01:24:50;101414.16;;;23.47
52673;BMP280;38568;53.260;-2.504;2023-07-09T01:27:06;101416.01;;;23.51
52673;BMP280;38568;53.260;-2.504;2023-07-09T01:29:31;101419.49;;;23.42
52673;BMP280;38568;53.260;-2.504;2023-07-09T01:31:55;101422.72;;;23.42
52673;BMP280;38568;53.260;-2.504;2023-07-09T01:34:21;101425.75;;;23.56
52673;BMP280;38568;53.260;-2.504;2023-07-09T01:36:46;101429.22;;;23.64
52673;BMP280;38568;53.260;-2.504;2023-07-09T01:39:12;101428.16;;;23.26
52673;BMP280;38568;53.260;-2.504;2023-07-09T01:41:37;101427.44;;;23.71
52673;BMP280;38568;53.260;-2.504;2023-07-09T01:44:03;101427.58;;;23.41
52673;BMP280;38568;53.260;-2.504;2023-07-09T01:46:29;101430.98;;;23.46
52673;BMP280;38568;53.260;-2.504;2023-07-09T01:48:55;101436.01;;;23.57
52673;BMP280;38568;53.260;-2.504;2023-07-09T01:51:20;101436.03;;;23.71
52673;BMP280;38568;53.260;-2.504;2023-07-09T01:53:45;101439.89;;;23.26
52673;BMP280;38568;53.260;-2.504;2023-07-09T01:56:10;101440.64;;;23.48
52673;BMP280;38568;53.260;-2.504;2023-07-09T01:58:36;101444.94;;;23.34
52673;BMP280;38568;53.260;-2.504;2023-07-09T02:01:01;101448.70;;;23.31
52673;BMP280;38568;53.260;-2.504;2023-07-09T02:03:26;101438.35;;;23.49
52673;BMP280;38568;53.260;-2.504;2023-07-09T02:05:53;101438.73;;;23.54
52673;BMP280;38568;53.260;-2.504;2023-07-09T02:08:16;101437.63;;;23.61
52673;BMP280;38568;53.260;-2.504;2023-07-09T02:10:44;101436.54;;;23.55
52673;BMP280;38568;53.260;-2.504;2023-07-09T02:13:07;101444.12;;;23.36
52673;BMP280;38568;53.260;-2.504;2023-07-09T02:15:33;101453.08;;;23.12
52673;BMP280;38568;53.260;-2.504;2023-07-09T02:17:58;101460.42;;;23.23
52673;BMP280;38568;53.260;-2.504;2023-07-09T02:20:23;101467.87;;;23.54
52673;BMP280;38568;53.260;-2.504;2023-07-09T02:22:50;101470.30;;;23.36
52673;BMP280;38568;53.260;-2.504;2023-07-09T02:25:14;101473.21;;;23.54
52673;BMP280;38568;53.260;-2.504;2023-07-09T02:27:40;101474.10;;;23.42
52673;BMP280;38568;53.260;-2.504;2023-07-09T02:30:08;101464.48;;;23.58
52673;BMP280;38568;53.260;-2.504;2023-07-09T02:32:31;101465.72;;;23.31
52673;BMP280;38568;53.260;-2.504;2023-07-09T02:34:56;101464.48;;;23.27
52673;BMP280;38568;53.260;-2.504;2023-07-09T02:37:24;101462.11;;;23.65
52673;BMP280;38568;53.260;-2.504;2023-07-09T02:39:48;101460.35;;;23.19
52673;BMP280;38568;53.260;-2.504;2023-07-09T02:42:15;101457.10;;;23.38
52673;BMP280;38568;53.260;-2.504;2023-07-09T02:44:39;101459.55;;;23.25
52673;BMP280;38568;53.260;-2.504;2023-07-09T02:47:04;101464.23;;;23.26
52673;BMP280;38568;53.260;-2.504;2023-07-09T02:49:29;101457.37;;;23.48
52673;BMP280;38568;53.260;-2.504;2023-07-09T02:51:55;101451.90;;;23.34
52673;BMP280;38568;53.260;-2.504;2023-07-09T02:54:21;101451.88;;;23.14
52673;BMP280;38568;53.260;-2.504;2023-07-09T02:56:46;101453.35;;;23.21
52673;BMP280;38568;53.260;-2.504;2023-07-09T02:59:11;101454.14;;;23.61
52673;BMP280;38568;53.260;-2.504;2023-07-09T03:01:36;101456.90;;;23.19
52673;BMP280;38568;53.260;-2.504;2023-07-09T03:04:02;101462.83;;;23.87
52673;BMP280;38568;53.260;-2.504;2023-07-09T03:06:28;101465.63;;;23.11
52673;BMP280;38568;53.260;-2.504;2023-07-09T03:08:53;101464.67;;;23.11
52673;BMP280;38568;53.260;-2.504;2023-07-09T03:11:20;101462.30;;;23.10
52673;BMP280;38568;53.260;-2.504;2023-07-09T03:13:44;101459.10;;;23.51
52673;BMP280;38568;53.260;-2.504;2023-07-09T03:16:11;101448.50;;;23.72
52673;BMP280;38568;53.260;-2.504;2023-07-09T03:18:36;101451.41;;;23.29
52673;BMP280;38568;53.260;-2.504;2023-07-09T03:21:01;101434.96;;;23.52
52673;BMP280;38568;53.260;-2.504;2023-07-09T03:23:27;101434.14;;;23.51
52673;BMP280;38568;53.260;-2.504;2023-07-09T03:25:52;101439.92;;;23.04
52673;BMP280;38568;53.260;-2.504;2023-07-09T03:28:19;101449.35;;;23.21
52673;BMP280;38568;53.260;-2.504;2023-07-09T03:30:45;101458.93;;;23.22
52673;BMP280;38568;53.260;-2.504;2023-07-09T03:33:10;101454.19;;;23.29
52673;BMP280;38568;53.260;-2.504;2023-07-09T03:35:35;101446.15;;;23.30
52673;BMP280;38568;53.260;-2.504;2023-07-09T03:38:01;101454.00;;;23.14
52673;BMP280;38568;53.260;-2.504;2023-07-09T03:40:26;101460.48;;;23.28
52673;BMP280;38568;53.260;-2.504;2023-07-09T03:42:52;101460.79;;;23.28
52673;BMP280;38568;53.260;-2.504;2023-07-09T03:45:18;101457.67;;;23.28
52673;BMP280;38568;53.260;-2.504;2023-07-09T03:47:43;101459.06;;;23.22
52673;BMP280;38568;53.260;-2.504;2023-07-09T03:50:09;101452.30;;;23.56
52673;BMP280;38568;53.260;-2.504;2023-07-09T03:52:34;101466.24;;;23.20
52673;BMP280;38568;53.260;-2.504;2023-07-09T03:54:59;101476.72;;;22.93
52673;BMP280;38568;53.260;-2.504;2023-07-09T03:57:25;101481.92;;;23.66
52673;BMP280;38568;53.260;-2.504;2023-07-09T03:59:50;101485.26;;;23.22
52673;BMP280;38568;53.260;-2.504;2023-07-09T04:02:16;101485.44;;;23.31
52673;BMP280;38568;53.260;-2.504;2023-07-09T04:04:42;101484.64;;;23.04
52673;BMP280;38568;53.260;-2.504;2023-07-09T04:07:07;101490.38;;;23.09
52673;BMP280;38568;53.260;-2.504;2023-07-09T04:09:32;101482.04;;;23.29
52673;BMP280;38568;53.260;-2.504;2023-07-09T04:11:58;101472.41;;;23.01
52673;BMP280;38568;53.260;-2.504;2023-07-09T04:14:23;101465.20;;;23.06
52673;BMP280;38568;53.260;-2.504;2023-07-09T04:16:49;101471.04;;;22.94
52673;BMP280;38568;53.260;-2.504;2023-07-09T04:19:14;101472.19;;;23.17
52673;BMP280;38568;53.260;-2.504;2023-07-09T04:21:40;101472.67;;;23.05
52673;BMP280;38568;53.260;-2.504;2023-07-09T04:24:06;101483.54;;;23.15
52673;BMP280;38568;53.260;-2.504;2023-07-09T04:26:30;101479.05;;;23.22
52673;BMP280;38568;53.260;-2.504;2023-07-09T04:28:56;101476.60;;;23.29
52673;BMP280;38568;53.260;-2.504;2023-07-09T04:31:22;101482.72;;;23.09
52673;BMP280;38568;53.260;-2.504;2023-07-09T04:33:47;101503.80;;;22.99
52673;BMP280;38568;53.260;-2.504;2023-07-09T04:36:13;101507.21;;;22.91
52673;BMP280;38568;53.260;-2.504;2023-07-09T04:38:38;101502.90;;;23.19
52673;BMP280;38568;53.260;-2.504;2023-07-09T04:41:03;101509.67;;;22.89
52673;BMP280;38568;53.260;-2.504;2023-07-09T04:43:29;101511.25;;;23.09
52673;BMP280;38568;53.260;-2.504;2023-07-09T04:45:54;101506.81;;;23.31
52673;BMP280;38568;53.260;-2.504;2023-07-09T04:48:20;101492.13;;;23.28
52673;BMP280;38568;53.260;-2.504;2023-07-09T04:50:45;101491.68;;;23.17
52673;BMP280;38568;53.260;-2.504;2023-07-09T04:53:10;101491.16;;;23.24
52673;BMP280;38568;53.260;-2.504;2023-07-09T04:55:36;101484.40;;;23.06
52673;BMP280;38568;53.260;-2.504;2023-07-09T04:58:02;101480.06;;;23.22
52673;BMP280;38568;53.260;-2.504;2023-07-09T05:00:28;101482.06;;;23.22
52673;BMP280;38568;53.260;-2.504;2023-07-09T05:02:53;101489.61;;;22.94
52673;BMP280;38568;53.260;-2.504;2023-07-09T05:05:19;101486.26;;;23.12
52673;BMP280;38568;53.260;-2.504;2023-07-09T05:07:44;101486.47;;;23.16
52673;BMP280;38568;53.260;-2.504;2023-07-09T05:10:10;101493.95;;;23.19
52673;BMP280;38568;53.260;-2.504;2023-07-09T05:12:36;101499.43;;;23.33
52673;BMP280;38568;53.260;-2.504;2023-07-09T05:15:01;101504.74;;;23.46
52673;BMP280;38568;53.260;-2.504;2023-07-09T05:17:26;101511.38;;;23.40
52673;BMP280;38568;53.260;-2.504;2023-07-09T05:19:52;101518.55;;;22.89
52673;BMP280;38568;53.260;-2.504;2023-07-09T05:22:18;101511.45;;;23.30
52673;BMP280;38568;53.260;-2.504;2023-07-09T05:24:43;101499.07;;;23.18
52673;BMP280;38568;53.260;-2.504;2023-07-09T05:27:09;101497.81;;;22.94
52673;BMP280;38568;53.260;-2.504;2023-07-09T05:29:34;101495.14;;;23.41
52673;BMP280;38568;53.260;-2.504;2023-07-09T05:32:00;101490.75;;;23.14
52673;BMP280;38568;53.260;-2.504;2023-07-09T05:34:25;101480.25;;;23.42
52673;BMP280;38568;53.260;-2.504;2023-07-09T05:36:51;101476.99;;;22.63
52673;BMP280;38568;53.260;-2.504;2023-07-09T05:39:17;101483.58;;;22.84
52673;BMP280;38568;53.260;-2.504;2023-07-09T05:41:43;101484.85;;;23.01
52673;BMP280;38568;53.260;-2.504;2023-07-09T05:44:08;101482.78;;;23.24
52673;BMP280;38568;53.260;-2.504;2023-07-09T05:46:35;101482.87;;;22.97
52673;BMP280;38568;53.260;-2.504;2023-07-09T05:48:59;101487.92;;;23.15
52673;BMP280;38568;53.260;-2.504;2023-07-09T05:51:24;101488.35;;;23.16
52673;BMP280;38568;53.260;-2.504;2023-07-09T05:53:50;101494.65;;;22.78
52673;BMP280;38568;53.260;-2.504;2023-07-09T05:56:16;101500.81;;;23.05
52673;BMP280;38568;53.260;-2.504;2023-07-09T05:58:42;101501.74;;;23.11
52673;BMP280;38568;53.260;-2.504;2023-07-09T06:01:07;101498.11;;;22.99
52673;BMP280;38568;53.260;-2.504;2023-07-09T06:03:33;101487.57;;;22.98
52673;BMP280;38568;53.260;-2.504;2023-07-09T06:05:59;101485.49;;;23.19
52673;BMP280;38568;53.260;-2.504;2023-07-09T06:08:25;101494.53;;;23.17
52673;BMP280;38568;53.260;-2.504;2023-07-09T06:10:52;101501.19;;;22.79
52673;BMP280;38568;53.260;-2.504;2023-07-09T06:13:16;101505.99;;;22.87
52673;BMP280;38568;53.260;-2.504;2023-07-09T06:15:42;101515.19;;;23.35
52673;BMP280;38568;53.260;-2.504;2023-07-09T06:18:07;101504.07;;;23.01
52673;BMP280;38568;53.260;-2.504;2023-07-09T06:20:33;101496.62;;;23.22
52673;BMP280;38568;53.260;-2.504;2023-07-09T06:22:58;101500.60;;;23.12
52673;BMP280;38568;53.260;-2.504;2023-07-09T06:25:27;101503.83;;;22.80
52673;BMP280;38568;53.260;-2.504;2023-07-09T06:27:50;101497.56;;;23.25
52673;BMP280;38568;53.260;-2.504;2023-07-09T06:30:15;101492.76;;;23.22
52673;BMP280;38568;53.260;-2.504;2023-07-09T06:32:48;101492.23;;;23.10
52673;BMP280;38568;53.260;-2.504;2023-07-09T06:35:14;101494.53;;;22.94
52673;BMP280;38568;53.260;-2.504;2023-07-09T06:37:32;101497.38;;;23.64
52673;BMP280;38568;53.260;-2.504;2023-07-09T06:39:58;101495.12;;;23.07
52673;BMP280;38568;53.260;-2.504;2023-07-09T06:42:22;101504.88;;;23.21
52673;BMP280;38568;53.260;-2.504;2023-07-09T06:44:48;101507.89;;;22.92
52673;BMP280;38568;53.260;-2.504;2023-07-09T06:47:19;101507.01;;;23.39
52673;BMP280;38568;53.260;-2.504;2023-07-09T06:49:45;101510.61;;;23.41
52673;BMP280;38568;53.260;-2.504;2023-07-09T06:52:07;101512.39;;;23.07
52673;BMP280;38568;53.260;-2.504;2023-07-09T06:54:30;101524.77;;;23.55
52673;BMP280;38568;53.260;-2.504;2023-07-09T06:56:56;101523.38;;;23.11
52673;BMP280;38568;53.260;-2.504;2023-07-09T06:59:21;101531.43;;;23.19
52673;BMP280;38568;53.260;-2.504;2023-07-09T07:01:47;101538.26;;;23.28
52673;BMP280;38568;53.260;-2.504;2023-07-09T07:04:12;101542.60;;;23.37
52673;BMP280;38568;53.260;-2.504;2023-07-09T07:06:37;101542.24;;;23.59
52673;BMP280;38568;53.260;-2.504;2023-07-09T07:09:04;101543.06;;;23.42
52673;BMP280;38568;53.260;-2.504;2023-07-09T07:11:28;101538.96;;;23.34
52673;BMP280;38568;53.260;-2.504;2023-07-09T07:13:53;101534.43;;;23.35
52673;BMP280;38568;53.260;-2.504;2023-07-09T07:16:19;101534.13;;;23.20
52673;BMP280;38568;53.260;-2.504;2023-07-09T07:18:45;101541.31;;;23.23
52673;BMP280;38568;53.260;-2.504;2023-07-09T07:21:10;101547.31;;;22.86
52673;BMP280;38568;53.260;-2.504;2023-07-09T07:23:36;101554.24;;;23.03
52673;BMP280;38568;53.260;-2.504;2023-07-09T07:26:01;101550.39;;;23.21
52673;BMP280;38568;53.260;-2.504;2023-07-09T07:28:26;101550.98;;;23.15
52673;BMP280;38568;53.260;-2.504;2023-07-09T07:30:59;101550.42;;;22.98
52673;BMP280;38568;53.260;-2.504;2023-07-09T07:33:17;101550.29;;;23.19
52673;BMP280;38568;53.260;-2.504;2023-07-09T07:35:43;101547.02;;;23.20
52673;BMP280;38568;53.260;-2.504;2023-07-09T07:38:11;101542.86;;;23.00
52673;BMP280;38568;53.260;-2.504;2023-07-09T07:40:38;101540.02;;;23.02
52673;BMP280;38568;53.260;-2.504;2023-07-09T07:42:59;101534.76;;;23.15
52673;BMP280;38568;53.260;-2.504;2023-07-09T07:45:25;101540.14;;;22.58
52673;BMP280;38568;53.260;-2.504;2023-07-09T07:47:50;101545.91;;;23.28
52673;BMP280;38568;53.260;-2.504;2023-07-09T07:50:17;101549.04;;;23.14
52673;BMP280;38568;53.260;-2.504;2023-07-09T07:52:42;101555.71;;;23.20
52673;BMP280;38568;53.260;-2.504;2023-07-09T07:55:08;101557.91;;;23.30
52673;BMP280;38568;53.260;-2.504;2023-07-09T07:57:33;101561.23;;;23.60
52673;BMP280;38568;53.260;-2.504;2023-07-09T07:59:58;101560.13;;;23.04
52673;BMP280;38568;53.260;-2.504;2023-07-09T08:02:24;101554.69;;;23.60
52673;BMP280;38568;53.260;-2.504;2023-07-09T08:04:49;101561.47;;;23.70
52673;BMP280;38568;53.260;-2.504;2023-07-09T08:07:17;101571.58;;;23.17
52673;BMP280;38568;53.260;-2.504;2023-07-09T08:09:41;101581.32;;;23.64
52673;BMP280;38568;53.260;-2.504;2023-07-09T08:12:06;101590.99;;;23.51
52673;BMP280;38568;53.260;-2.504;2023-07-09T08:14:32;101589.14;;;22.95
52673;BMP280;38568;53.260;-2.504;2023-07-09T08:16:57;101593.93;;;23.01
52673;BMP280;38568;53.260;-2.504;2023-07-09T08:19:23;101593.24;;;22.87
52673;BMP280;38568;53.260;-2.504;2023-07-09T08:21:48;101593.35;;;23.37
52673;BMP280;38568;53.260;-2.504;2023-07-09T08:24:14;101588.27;;;22.57
52673;BMP280;38568;53.260;-2.504;2023-07-09T08:26:40;101592.88;;;22.64
52673;BMP280;38568;53.260;-2.504;2023-07-09T08:29:06;101612.84;;;22.93
52673;BMP280;38568;53.260;-2.504;2023-07-09T08:31:32;101617.85;;;22.93
52673;BMP280;38568;53.260;-2.504;2023-07-09T08:33:57;101611.06;;;22.80
52673;BMP280;38568;53.260;-2.504;2023-07-09T08:36:23;101606.92;;;22.25
52673;BMP280;38568;53.260;-2.504;2023-07-09T08:38:49;101611.76;;;22.90
52673;BMP280;38568;53.260;-2.504;2023-07-09T08:41:25;101610.30;;;22.92
52673;BMP280;38568;53.260;-2.504;2023-07-09T08:43:49;101599.24;;;22.92
52673;BMP280;38568;53.260;-2.504;2023-07-09T08:46:14;101597.24;;;22.83
52673;BMP280;38568;53.260;-2.504;2023-07-09T08:48:33;101592.22;;;22.79
52673;BMP280;38568;53.260;-2.504;2023-07-09T08:50:59;101588.09;;;22.92
52673;BMP280;38568;53.260;-2.504;2023-07-09T08:53:30;101585.44;;;22.80
52673;BMP280;38568;53.260;-2.504;2023-07-09T08:55:50;101582.10;;;22.79
52673;BMP280;38568;53.260;-2.504;2023-07-09T08:58:20;101575.28;;;22.99
52673;BMP280;38568;53.260;-2.504;2023-07-09T09:00:45;101578.22;;;22.75
52673;BMP280;38568;53.260;-2.504;2023-07-09T09:03:11;101579.05;;;22.85
52673;BMP280;38568;53.260;-2.504;2023-07-09T09:05:33;101576.76;;;23.07
52673;BMP280;38568;53.260;-2.504;2023-07-09T09:08:02;101573.99;;;23.06
52673;BMP280;38568;53.260;-2.504;2023-07-09T09:10:29;101574.42;;;23.05
52673;BMP280;38568;53.260;-2.504;2023-07-09T09:12:59;101575.22;;;22.65
52673;BMP280;38568;53.260;-2.504;2023-07-09T09:15:17;101572.73;;;22.84
52673;BMP280;38568;53.260;-2.504;2023-07-09T09:17:40;101569.05;;;23.14
52673;BMP280;38568;53.260;-2.504;2023-07-09T09:20:09;101569.46;;;23.14
52673;BMP280;38568;53.260;-2.504;2023-07-09T09:22:39;101563.65;;;23.09
52673;BMP280;38568;53.260;-2.504;2023-07-09T09:25:02;101563.62;;;23.14
52673;BMP280;38568;53.260;-2.504;2023-07-09T09:27:23;101561.93;;;23.22
52673;BMP280;38568;53.260;-2.504;2023-07-09T09:29:49;101566.51;;;23.49
52673;BMP280;38568;53.260;-2.504;2023-07-09T09:32:22;101560.66;;;23.47
52673;BMP280;38568;53.260;-2.504;2023-07-09T09:34:40;101562.21;;;23.33
52673;BMP280;38568;53.260;-2.504;2023-07-09T09:37:10;101557.82;;;23.33
52673;BMP280;38568;53.260;-2.504;2023-07-09T09:39:32;101556.80;;;23.34
52673;BMP280;38568;53.260;-2.504;2023-07-09T09:41:58;101554.42;;;23.47
52673;BMP280;38568;53.260;-2.504;2023-07-09T09:44:26;101549.04;;;23.43
52673;BMP280;38568;53.260;-2.504;2023-07-09T09:46:49;101545.04;;;23.65
52673;BMP280;38568;53.260;-2.504;2023-07-09T09:49:14;101547.01;;;23.79
52673;BMP280;38568;53.260;-2.504;2023-07-09T09:51:42;101543.50;;;23.90
52673;BMP280;38568;53.260;-2.504;2023-07-09T09:54:14;101544.67;;;23.95
52673;BMP280;38568;53.260;-2.504;2023-07-09T09:56:36;101540.99;;;23.83
52673;BMP280;38568;53.260;-2.504;2023-07-09T09:58:58;101541.09;;;24.03
52673;BMP280;38568;53.260;-2.504;2023-07-09T10:01:28;101542.31;;;24.14
52673;BMP280;38568;53.260;-2.504;2023-07-09T10:03:51;101541.60;;;24.10
52673;BMP280;38568;53.260;-2.504;2023-07-09T10:06:17;101539.59;;;24.12
52673;BMP280;38568;53.260;-2.504;2023-07-09T10:08:50;101534.35;;;23.72
52673;BMP280;38568;53.260;-2.504;2023-07-09T10:11:12;101538.61;;;24.22
52673;BMP280;38568;53.260;-2.504;2023-07-09T10:13:35;101535.36;;;23.89
52673;BMP280;38568;53.260;-2.504;2023-07-09T10:16:05;101534.79;;;24.17
52673;BMP280;38568;53.260;-2.504;2023-07-09T10:18:32;101527.91;;;24.12
52673;BMP280;38568;53.260;-2.504;2023-07-09T10:20:54;101531.99;;;24.13
52673;BMP280;38568;53.260;-2.504;2023-07-09T10:23:22;101527.02;;;24.31
52673;BMP280;38568;53.260;-2.504;2023-07-09T10:25:47;101528.45;;;23.89
52673;BMP280;38568;53.260;-2.504;2023-07-09T10:28:18;101524.33;;;24.31
52673;BMP280;38568;53.260;-2.504;2023-07-09T10:30:41;101522.63;;;24.10
52673;BMP280;38568;53.260;-2.504;2023-07-09T10:33:06;101524.84;;;23.85
52673;BMP280;38568;53.260;-2.504;2023-07-09T10:35:29;101521.49;;;24.34
52673;BMP280;38568;53.260;-2.504;2023-07-09T10:38:00;101525.92;;;24.26
52673;BMP280;38568;53.260;-2.504;2023-07-09T10:40:18;101528.31;;;24.32
52673;BMP280;38568;53.260;-2.504;2023-07-09T10:42:44;101522.85;;;24.57
52673;BMP280;38568;53.260;-2.504;2023-07-09T10:45:10;101517.06;;;24.05
52673;BMP280;38568;53.260;-2.504;2023-07-09T10:47:34;101522.10;;;24.35
52673;BMP280;38568;53.260;-2.504;2023-07-09T10:49:58;101518.69;;;24.11
52673;BMP280;38568;53.260;-2.504;2023-07-09T10:52:27;101522.67;;;24.50
52673;BMP280;38568;53.260;-2.504;2023-07-09T10:54:56;101525.46;;;24.40
52673;BMP280;38568;53.260;-2.504;2023-07-09T10:57:19;101521.82;;;24.40
52673;BMP280;38568;53.260;-2.504;2023-07-09T10:59:42;101520.69;;;24.23
52673;BMP280;38568;53.260;-2.504;2023-07-09T11:02:17;101520.63;;;24.36
52673;BMP280;38568;53.260;-2.504;2023-07-09T11:04:37;101520.83;;;24.17
52673;BMP280;38568;53.260;-2.504;2023-07-09T11:07:00;101514.92;;;24.17
52673;BMP280;38568;53.260;-2.504;2023-07-09T11:09:26;101513.97;;;24.07
52673;BMP280;38568;53.260;-2.504;2023-07-09T11:11:53;101512.20;;;24.30
52673;BMP280;38568;53.260;-2.504;2023-07-09T11:14:23;101517.21;;;24.36
52673;BMP280;38568;53.260;-2.504;2023-07-09T11:16:42;101520.10;;;24.54
52673;BMP280;38568;53.260;-2.504;2023-07-09T11:19:13;101520.60;;;24.30
52673;BMP280;38568;53.260;-2.504;2023-07-09T11:21:32;101524.66;;;24.26
52673;BMP280;38568;53.260;-2.504;2023-07-09T11:23:59;101519.52;;;24.57
52673;BMP280;38568;53.260;-2.504;2023-07-09T11:26:26;101514.27;;;24.22
52673;BMP280;38568;53.260;-2.504;2023-07-09T11:28:52;101517.34;;;24.33
52673;BMP280;38568;53.260;-2.504;2023-07-09T11:31:21;101514.90;;;24.28
52673;BMP280;38568;53.260;-2.504;2023-07-09T11:33:46;101511.80;;;24.43
52673;BMP280;38568;53.260;-2.504;2023-07-09T11:36:09;101512.37;;;24.54
52673;BMP280;38568;53.260;-2.504;2023-07-09T11:38:43;101514.51;;;24.26
52673;BMP280;38568;53.260;-2.504;2023-07-09T11:40:58;101515.30;;;24.37
52673;BMP280;38568;53.260;-2.504;2023-07-09T11:43:28;101516.55;;;24.92
52673;BMP280;38568;53.260;-2.504;2023-07-09T11:45:50;101512.20;;;24.41
52673;BMP280;38568;53.260;-2.504;2023-07-09T11:48:22;101516.25;;;24.46
52673;BMP280;38568;53.260;-2.504;2023-07-09T11:50:45;101513.17;;;24.45
52673;BMP280;38568;53.260;-2.504;2023-07-09T11:53:29;101516.28;;;24.55
52673;BMP280;38568;53.260;-2.504;2023-07-09T11:55:39;101519.56;;;24.65
52673;BMP280;38568;53.260;-2.504;2023-07-09T11:58:00;101516.77;;;24.51
52673;BMP280;38568;53.260;-2.504;2023-07-09T12:00:26;101515.53;;;24.44
52673;BMP280;38568;53.260;-2.504;2023-07-09T12:02:50;101512.39;;;24.78
52673;BMP280;38568;53.260;-2.504;2023-07-09T12:05:20;101512.77;;;24.61
52673;BMP280;38568;53.260;-2.504;2023-07-09T12:07:41;101504.10;;;24.66
52673;BMP280;38568;53.260;-2.504;2023-07-09T12:10:18;101504.29;;;24.57
52673;BMP280;38568;53.260;-2.504;2023-07-09T12:12:33;101501.89;;;24.44
52673;BMP280;38568;53.260;-2.504;2023-07-09T12:14:59;101499.53;;;24.79
52673;BMP280;38568;53.260;-2.504;2023-07-09T12:17:26;101495.43;;;24.35
52673;BMP280;38568;53.260;-2.504;2023-07-09T12:19:51;101496.65;;;24.35
52673;BMP280;38568;53.260;-2.504;2023-07-09T12:22:19;101494.25;;;24.78
52673;BMP280;38568;53.260;-2.504;2023-07-09T12:24:44;101489.23;;;24.58
52673;BMP280;38568;53.260;-2.504;2023-07-09T12:27:17;101490.62;;;24.42
52673;BMP280;38568;53.260;-2.504;2023-07-09T12:29:35;101482.90;;;24.40
52673;BMP280;38568;53.260;-2.504;2023-07-09T12:32:00;101484.24;;;24.46
52673;BMP280;38568;53.260;-2.504;2023-07-09T12:34:25;101488.27;;;24.49
52673;BMP280;38568;53.260;-2.504;2023-07-09T12:36:53;101483.67;;;24.91
52673;BMP280;38568;53.260;-2.504;2023-07-09T12:39:22;101483.84;;;24.53
52673;BMP280;38568;53.260;-2.504;2023-07-09T12:41:44;101481.32;;;24.41
52673;BMP280;38568;53.260;-2.504;2023-07-09T12:44:15;101479.84;;;24.46
52673;BMP280;38568;53.260;-2.504;2023-07-09T12:46:34;101470.82;;;24.61
52673;BMP280;38568;53.260;-2.504;2023-07-09T12:48:59;101473.65;;;24.64
52673;BMP280;38568;53.260;-2.504;2023-07-09T12:51:28;101468.82;;;24.53
52673;BMP280;38568;53.260;-2.504;2023-07-09T12:54:02;101466.38;;;24.58
52673;BMP280;38568;53.260;-2.504;2023-07-09T12:56:17;101458.74;;;24.47
52673;BMP280;38568;53.260;-2.504;2023-07-09T12:58:42;101455.10;;;24.52
52673;BMP280;38568;53.260;-2.504;2023-07-09T13:01:14;101447.36;;;24.65
52673;BMP280;38568;53.260;-2.504;2023-07-09T13:03:34;101447.27;;;24.50
52673;BMP280;38568;53.260;-2.504;2023-07-09T13:06:01;101443.99;;;24.65
52673;BMP280;38568;53.260;-2.504;2023-07-09T13:08:26;101443.80;;;24.58
52673;BMP280;38568;53.260;-2.504;2023-07-09T13:10:51;101437.97;;;24.48
52673;BMP280;38568;53.260;-2.504;2023-07-09T13:13:19;101433.96;;;24.63
52673;BMP280;38568;53.260;-2.504;2023-07-09T13:15:44;101434.35;;;24.64
52673;BMP280;38568;53.260;-2.504;2023-07-09T13:18:11;101433.04;;;24.72
52673;BMP280;38568;53.260;-2.504;2023-07-09T13:20:37;101436.33;;;24.76
52673;BMP280;38568;53.260;-2.504;2023-07-09T13:23:00;101438.73;;;24.73
52673;BMP280;38568;53.260;-2.504;2023-07-09T13:25:26;101439.60;;;24.61
52673;BMP280;38568;53.260;-2.504;2023-07-09T13:27:52;101433.49;;;24.64
52673;BMP280;38568;53.260;-2.504;2023-07-09T13:30:17;101428.41;;;24.71
52673;BMP280;38568;53.260;-2.504;2023-07-09T13:32:44;101422.29;;;24.76
52673;BMP280;38568;53.260;-2.504;2023-07-09T13:35:14;101421.09;;;24.83
52673;BMP280;38568;53.260;-2.504;2023-07-09T13:37:35;101424.45;;;24.73
52673;BMP280;38568;53.260;-2.504;2023-07-09T13:40:00;101415.96;;;24.78